createdAt,value
2018-04-15T00:03:57.209Z,25.63
2018-04-15T00:08:48.257Z,26.20
2018-04-15T00:13:40.002Z,25.87
2018-04-15T00:18:31.757Z,26.10
2018-04-15T00:23:22.764Z,25.77
2018-04-15T00:28:14.569Z,25.20
2018-04-15T00:33:05.579Z,25.33
2018-04-15T00:38:00.782Z,24.30
2018-04-15T00:42:51.924Z,22.83
2018-04-15T00:47:42.948Z,22.63
2018-04-15T00:52:34.033Z,21.13
2018-04-15T00:57:25.815Z,22.53
2018-04-15T01:02:16.802Z,22.20
2018-04-15T01:07:07.845Z,21.80
2018-04-15T01:11:58.860Z,22.53
2018-04-15T01:16:49.853Z,22.30
2018-04-15T01:21:41.629Z,21.70
2018-04-15T01:26:32.610Z,23.33
2018-04-15T01:31:24.427Z,21.90
2018-04-15T01:36:15.444Z,22.47
2018-04-15T01:41:06.452Z,21.37
2018-04-15T01:45:57.560Z,20.77
2018-04-15T01:50:48.588Z,22.33
2018-04-15T01:55:39.735Z,22.27
2018-04-15T02:00:30.740Z,24.20
2018-04-15T02:05:21.838Z,25.43
2018-04-15T02:10:12.835Z,23.30
2018-04-15T02:15:04.581Z,24.50
2018-04-15T02:19:56.347Z,25.23
2018-04-15T02:24:47.379Z,24.67
2018-04-15T02:29:38.371Z,24.40
2018-04-15T02:34:30.139Z,23.90
2018-04-15T02:39:21.192Z,25.53
2018-04-15T02:44:12.211Z,25.03
2018-04-15T02:49:03.195Z,25.83
2018-04-15T02:53:54.217Z,25.43
2018-04-15T02:58:45.228Z,25.33
2018-04-15T03:03:37.012Z,24.37
2018-04-15T03:08:28.010Z,40.37
2018-04-15T03:13:19.033Z,41.93
2018-04-15T03:18:10.023Z,37.40
2018-04-15T03:23:01.849Z,32.90
2018-04-15T03:27:53.605Z,28.70
2018-04-15T03:32:45.359Z,24.43
2018-04-15T03:37:37.127Z,23.20
2018-04-15T03:42:28.155Z,22.50
2018-04-15T03:47:19.156Z,22.13
2018-04-15T03:52:10.155Z,23.17
2018-04-15T03:57:01.173Z,24.23
2018-04-15T04:01:52.283Z,24.10
2018-04-15T04:06:43.392Z,23.00
2018-04-15T04:11:34.417Z,24.23
2018-04-15T04:16:25.419Z,24.07
2018-04-15T04:21:35.190Z,23.67
2018-04-15T04:26:26.302Z,24.23
2018-04-15T04:31:18.304Z,24.03
2018-04-15T04:36:09.297Z,24.67
2018-04-15T04:41:00.279Z,26.27
2018-04-15T04:45:51.294Z,26.63
2018-04-15T04:50:43.085Z,25.60
2018-04-15T04:55:34.188Z,25.87
2018-04-15T05:00:25.185Z,25.67
2018-04-15T05:05:16.195Z,25.47
2018-04-15T05:10:07.277Z,25.07
2018-04-15T05:14:58.287Z,25.13
2018-04-15T05:19:49.322Z,25.87
2018-04-15T05:24:40.337Z,26.73
2018-04-15T05:29:31.351Z,27.07
2018-04-15T05:34:22.375Z,26.37
2018-04-15T05:39:13.376Z,27.80
2018-04-15T05:44:04.376Z,27.73
2018-04-15T05:48:56.126Z,27.67
2018-04-15T05:53:47.890Z,28.77
2018-04-15T05:58:38.913Z,28.47
2018-04-15T06:03:29.975Z,27.97
2018-04-15T06:08:20.968Z,30.83
2018-04-15T06:13:12.094Z,29.53
2018-04-15T06:18:03.092Z,29.97
2018-04-15T06:22:54.155Z,30.13
2018-04-15T06:27:45.172Z,32.33
2018-04-15T06:32:36.171Z,30.73
2018-04-15T06:37:27.242Z,32.17
2018-04-15T06:42:18.261Z,31.87
2018-04-15T06:47:09.251Z,30.20
2018-04-15T06:52:00.250Z,31.13
2018-04-15T06:56:51.312Z,31.13
2018-04-15T07:01:42.335Z,29.67
2018-04-15T07:06:33.343Z,28.73
2018-04-15T07:11:24.369Z,29.90
2018-04-15T07:16:15.411Z,28.63
2018-04-15T07:21:06.507Z,28.27
2018-04-15T07:25:57.618Z,28.50
2018-04-15T07:30:48.615Z,26.97
2018-04-15T07:35:40.354Z,27.50
2018-04-15T07:40:32.174Z,24.97
2018-04-15T07:45:23.180Z,25.70
2018-04-15T07:50:14.183Z,22.60
2018-04-15T07:55:05.187Z,21.43
2018-04-15T07:59:56.198Z,21.50
2018-04-15T08:04:48.029Z,18.40
2018-04-15T08:09:39.791Z,19.90
2018-04-15T08:14:30.783Z,18.30
2018-04-15T08:19:21.858Z,17.07
2018-04-15T08:24:12.909Z,16.67
2018-04-15T08:29:03.940Z,16.00
2018-04-15T08:33:54.966Z,14.77
2018-04-15T08:38:45.966Z,13.70
2018-04-15T08:43:37.044Z,13.63
2018-04-15T08:48:28.075Z,12.20
2018-04-15T08:53:19.071Z,11.93
2018-04-15T08:58:10.815Z,11.53
2018-04-15T09:03:02.547Z,11.27
2018-04-15T09:07:53.544Z,11.97
2018-04-15T09:12:44.567Z,10.93
2018-04-15T09:17:35.592Z,11.00
2018-04-15T09:22:26.645Z,10.83
2018-04-15T09:27:18.448Z,10.90
2018-04-15T09:32:09.481Z,9.80
2018-04-15T09:37:00.524Z,8.70
2018-04-15T09:41:52.820Z,9.40
2018-04-15T09:46:43.815Z,9.13
2018-04-15T09:51:35.571Z,8.10
2018-04-15T09:56:26.593Z,7.60
2018-04-15T10:01:17.683Z,8.43
2018-04-15T10:06:09.452Z,8.53
2018-04-15T10:11:00.458Z,8.50
2018-04-15T10:15:52.253Z,9.17
2018-04-15T10:20:43.360Z,8.73
2018-04-15T10:25:34.375Z,7.77
2018-04-15T10:30:25.397Z,7.53
2018-04-15T10:35:16.417Z,8.03
2018-04-15T10:40:07.421Z,7.47
2018-04-15T10:44:58.487Z,6.87
2018-04-15T10:49:49.553Z,7.07
2018-04-15T10:54:41.348Z,5.97
2018-04-15T10:59:32.400Z,5.70
2018-04-15T11:04:23.467Z,5.57
2018-04-15T11:09:14.489Z,5.03
2018-04-15T11:14:05.541Z,4.83
2018-04-15T11:18:57.310Z,4.93
2018-04-15T11:23:48.536Z,4.50
2018-04-15T11:28:39.615Z,4.37
2018-04-15T11:33:30.651Z,4.37
2018-04-15T11:38:21.728Z,3.97
2018-04-15T11:43:12.727Z,3.80
2018-04-15T11:48:03.849Z,2.83
2018-04-15T11:52:54.842Z,3.90
2018-04-15T11:57:45.840Z,3.50
2018-04-15T12:02:37.090Z,3.60
2018-04-15T12:07:28.124Z,3.07
2018-04-15T12:12:19.144Z,2.77
2018-04-15T12:17:10.201Z,3.37
2018-04-15T12:22:01.163Z,2.93
2018-04-15T12:26:52.295Z,3.40
2018-04-15T12:31:43.323Z,3.00
2018-04-15T12:36:34.553Z,2.90
2018-04-15T12:41:25.582Z,3.27
2018-04-15T12:46:16.627Z,3.17
2018-04-15T12:51:07.645Z,2.80
2018-04-15T12:55:58.721Z,2.80
2018-04-15T13:00:49.760Z,4.17
2018-04-15T13:05:40.819Z,2.60
2018-04-15T13:10:31.915Z,2.57
2018-04-15T13:15:22.911Z,2.93
2018-04-15T13:20:14.661Z,2.90
2018-04-15T13:25:05.704Z,2.40
2018-04-15T13:29:56.788Z,2.80
2018-04-15T13:34:48.595Z,2.53
2018-04-15T13:39:39.625Z,2.20
2018-04-15T13:44:30.675Z,2.40
2018-04-15T13:49:21.703Z,2.40
2018-04-15T13:54:13.549Z,2.17
2018-04-15T13:59:04.595Z,2.30
2018-04-15T14:03:55.608Z,2.67
2018-04-15T14:08:47.377Z,2.60
2018-04-15T14:13:38.439Z,2.97
2018-04-15T14:18:30.215Z,3.07
2018-04-15T14:23:22.031Z,2.87
2018-04-15T14:28:13.104Z,2.57
2018-04-15T14:33:04.117Z,2.90
2018-04-15T14:37:55.119Z,2.60
2018-04-15T14:42:46.907Z,2.60
2018-04-15T14:47:37.939Z,2.83
2018-04-15T14:52:29.276Z,3.53
2018-04-15T14:57:20.296Z,3.07
2018-04-15T15:02:11.311Z,3.37
2018-04-15T15:07:02.381Z,3.70
2018-04-15T15:11:54.265Z,2.70
2018-04-15T15:16:45.527Z,2.77
2018-04-15T15:21:37.324Z,3.00
2018-04-15T15:26:28.316Z,3.00
2018-04-15T15:31:20.052Z,2.77
2018-04-15T15:36:11.943Z,3.10
2018-04-15T15:41:02.944Z,3.20
2018-04-15T15:45:54.144Z,2.60
2018-04-15T15:50:45.917Z,3.30
2018-04-15T15:55:36.947Z,2.80
2018-04-15T16:00:27.951Z,2.80
2018-04-15T16:05:19.003Z,2.83
2018-04-15T16:10:10.064Z,3.13
2018-04-15T16:15:01.069Z,3.40
2018-04-15T16:19:52.111Z,3.00
2018-04-15T16:24:43.167Z,3.07
2018-04-15T16:29:34.276Z,3.20
2018-04-15T16:34:26.007Z,3.30
2018-04-15T16:39:17.952Z,4.43
2018-04-15T16:44:09.736Z,3.10
2018-04-15T16:49:00.748Z,3.50
2018-04-15T16:53:51.932Z,3.63
2018-04-15T16:58:42.942Z,2.90
2018-04-15T17:03:33.976Z,3.47
2018-04-15T17:08:25.758Z,3.90
2018-04-15T17:13:16.799Z,4.30
2018-04-15T17:18:07.892Z,4.10
2018-04-15T17:22:58.953Z,3.70
2018-04-15T17:27:49.955Z,4.30
2018-04-15T17:32:41.287Z,4.40
2018-04-15T17:37:32.487Z,4.97
2018-04-15T17:42:24.359Z,5.13
2018-04-15T17:47:15.385Z,5.13
2018-04-15T17:52:06.412Z,7.00
2018-04-15T17:56:57.549Z,5.90
2018-04-15T18:01:48.561Z,5.70
2018-04-15T18:06:39.731Z,5.83
2018-04-15T18:11:30.863Z,7.00
2018-04-15T18:16:22.628Z,7.73
2018-04-15T18:21:13.641Z,7.97
2018-04-15T18:26:04.721Z,7.00
2018-04-15T18:30:57.263Z,5.90
2018-04-15T18:35:48.275Z,6.60
2018-04-15T18:40:39.311Z,6.70
2018-04-15T18:45:30.431Z,7.63
2018-04-15T18:50:21.492Z,7.07
2018-04-15T18:55:13.961Z,7.60
2018-04-15T19:00:05.742Z,8.13
2018-04-15T19:04:56.794Z,9.13
2018-04-15T19:09:48.609Z,9.57
2018-04-15T19:14:39.649Z,9.07
2018-04-15T19:19:30.660Z,7.53
2018-04-15T19:24:21.701Z,8.10
2018-04-15T19:29:12.712Z,8.77
2018-04-15T19:34:03.719Z,8.60
2018-04-15T19:38:54.770Z,9.53
2018-04-15T19:43:45.800Z,9.33
2018-04-15T19:48:38.281Z,7.30
2018-04-15T19:53:30.801Z,6.87
2018-04-15T19:58:21.845Z,7.47
2018-04-15T20:03:12.927Z,6.95
2018-04-15T20:08:03.939Z,6.70
2018-04-15T20:12:55.041Z,7.27
2018-04-15T20:17:46.115Z,7.10
2018-04-15T20:22:37.249Z,7.23
2018-04-15T20:27:28.266Z,7.93
2018-04-15T20:32:19.273Z,7.90
2018-04-15T20:37:10.286Z,8.27
2018-04-15T20:42:01.411Z,9.57
2018-04-15T20:46:52.460Z,9.03
2018-04-15T20:51:43.467Z,10.33
2018-04-15T20:56:34.495Z,10.53
2018-04-15T21:01:25.530Z,12.43
2018-04-15T21:06:16.613Z,12.23
2018-04-15T21:11:07.665Z,12.60
2018-04-15T21:15:58.682Z,12.80
2018-04-15T21:20:49.703Z,13.50
2018-04-15T21:25:40.733Z,13.80
2018-04-15T21:30:31.761Z,13.40
2018-04-15T21:35:22.763Z,14.10
2018-04-15T21:40:13.840Z,14.83
2018-04-15T21:45:05.595Z,15.43
2018-04-15T21:49:57.424Z,15.13
2018-04-15T21:54:49.185Z,15.23
2018-04-15T21:59:40.251Z,15.30
2018-04-15T22:04:31.273Z,16.10
2018-04-15T22:09:22.355Z,14.87
2018-04-15T22:14:13.367Z,16.23
2018-04-15T22:19:04.410Z,16.60
2018-04-15T22:23:55.543Z,14.97
2018-04-15T22:28:46.567Z,15.60
2018-04-15T22:33:37.584Z,15.87
2018-04-15T22:38:28.605Z,16.50
2018-04-15T22:43:19.740Z,16.07
2018-04-15T22:48:10.743Z,17.43
2018-04-15T22:53:01.768Z,17.90
2018-04-15T22:57:52.792Z,16.20
2018-04-15T23:02:43.790Z,18.17
2018-04-15T23:07:35.557Z,17.93
2018-04-15T23:12:26.592Z,18.87
2018-04-15T23:17:17.583Z,17.93
2018-04-15T23:22:09.323Z,18.40
2018-04-15T23:27:01.060Z,18.30
2018-04-15T23:31:52.803Z,19.27
2018-04-15T23:36:44.576Z,19.57
2018-04-15T23:41:35.583Z,18.73
2018-04-15T23:46:26.605Z,19.27
2018-04-15T23:51:17.650Z,19.57
2018-04-15T23:56:08.654Z,19.20
